Time;durP1;ratioP1;P1;durP2;ratioP2;P2;SDS_P1;SDS_P2;PMS_P1;PMS_P2;Temp;Humidity;BMP_temperature;BMP_pressure;BME280_temperature;BME280_humidity;BME280_pressure;Samples;Min_cycle;Max_cycle;Signal;HPM_P1;HPM_P2
2021/03/02 00:01:05;;;;;;;9.57;3.70;;;;;;;-0.02;100.00;102296.47;5070877;28;20448;-75
2021/03/02 00:03:32;;;;;;;3.60;2.27;;;;;;;0.11;100.00;102294.91;5070825;28;20420;-74
2021/03/02 00:05:58;;;;;;;1.83;1.73;;;;;;;0.17;100.00;102296.81;5070584;28;20417;-75
2021/03/02 00:08:24;;;;;;;5.90;2.57;;;;;;;0.10;100.00;102293.22;5070633;28;20950;-75
2021/03/02 00:10:50;;;;;;;3.10;2.90;;;;;;;0.41;100.00;102296.31;5070667;28;20202;-76
2021/03/02 00:13:16;;;;;;;2.00;1.80;;;;;;;0.24;100.00;102289.59;5070709;28;20258;-75
2021/03/02 00:15:41;;;;;;;1.77;1.33;;;;;;;0.29;100.00;102290.69;5070643;28;20170;-75
2021/03/02 00:18:07;;;;;;;3.53;3.20;;;;;;;0.50;100.00;102288.94;5070624;28;20253;-75
2021/03/02 00:20:35;;;;;;;2.63;2.43;;;;;;;0.47;100.00;102292.84;5070770;28;20200;-75
2021/03/02 00:23:10;;;;;;;3.13;2.93;;;;;;;0.65;100.00;102286.94;5072901;28;20420;-76
2021/03/02 00:25:41;;;;;;;3.17;2.43;;;;;;;0.69;100.00;102292.75;5074691;28;20499;-75
2021/03/02 00:28:09;;;;;;;2.77;2.57;;;;;;;0.66;100.00;102290.47;5073832;28;20425;-75
2021/03/02 00:30:35;;;;;;;1.83;1.73;;;;;;;0.70;100.00;102297.91;5074489;28;20449;-75
2021/03/02 00:33:03;;;;;;;2.13;2.00;;;;;;;0.73;100.00;102296.72;5073058;28;20429;-75
2021/03/02 00:35:28;;;;;;;2.70;2.57;;;;;;;0.83;100.00;102299.84;5074563;28;20194;-76
2021/03/02 00:37:54;;;;;;;3.07;1.70;;;;;;;0.91;100.00;102286.22;5074027;28;20470;-75
2021/03/02 00:40:19;;;;;;;2.67;2.47;;;;;;;0.87;100.00;102293.03;5074173;28;20262;-75
2021/03/02 00:42:45;;;;;;;3.00;1.73;;;;;;;0.85;100.00;102297.78;5074032;28;20186;-76
2021/03/02 00:45:11;;;;;;;3.43;2.77;;;;;;;0.66;100.00;102293.16;5074093;28;20174;-75
2021/03/02 00:47:37;;;;;;;2.90;2.70;;;;;;;0.61;100.00;102292.94;5073809;28;20629;-75
2021/03/02 00:50:04;;;;;;;4.47;2.90;;;;;;;0.56;100.00;102294.34;5074090;28;20174;-75
2021/03/02 00:52:30;;;;;;;2.30;2.17;;;;;;;0.54;100.00;102290.19;5073953;28;20502;-77
2021/03/02 00:54:55;;;;;;;2.53;2.33;;;;;;;0.58;100.00;102283.41;5074208;28;20513;-76
2021/03/02 00:57:20;;;;;;;1.90;1.80;;;;;;;0.63;100.00;102288.16;5073549;28;20183;-75
2021/03/02 00:59:46;;;;;;;1.83;1.73;;;;;;;0.55;100.00;102283.78;5073755;28;20187;-75
2021/03/02 01:02:11;;;;;;;2.30;2.13;;;;;;;0.78;100.00;102283.47;5073768;28;20175;-76
2021/03/02 01:04:37;;;;;;;6.77;2.20;;;;;;;0.89;100.00;102277.53;5073749;28;20591;-76
2021/03/02 01:07:05;;;;;;;2.00;1.90;;;;;;;0.97;100.00;102280.00;5073292;28;20186;-76
2021/03/02 01:09:31;;;;;;;1.77;1.67;;;;;;;1.03;100.00;102273.00;5073673;28;20543;-75
2021/03/02 01:11:57;;;;;;;1.87;1.77;;;;;;;0.93;100.00;102273.38;5073732;28;20687;-75
2021/03/02 01:14:22;;;;;;;1.60;1.50;;;;;;;1.08;100.00;102268.66;5073974;28;20464;-76
2021/03/02 01:16:48;;;;;;;2.57;2.37;;;;;;;1.03;100.00;102259.56;5073348;28;20179;-75
2021/03/02 01:19:13;;;;;;;2.83;2.63;;;;;;;1.05;100.00;102271.78;5073740;28;20250;-75
2021/03/02 01:21:38;;;;;;;3.50;2.47;;;;;;;0.93;100.00;102270.69;5073624;28;20308;-75
2021/03/02 01:24:04;;;;;;;2.40;2.30;;;;;;;0.93;100.00;102264.50;5073550;28;20174;-76
2021/03/02 01:26:30;;;;;;;0.67;0.67;;;;;;;0.87;100.00;102266.13;5073165;28;20281;-75
2021/03/02 01:28:55;;;;;;;2.10;2.00;;;;;;;0.76;100.00;102272.09;5072494;28;20182;-74
2021/03/02 01:31:21;;;;;;;1.97;1.57;;;;;;;0.70;100.00;102267.50;5073347;28;20185;-74
2021/03/02 01:33:46;;;;;;;2.53;2.33;;;;;;;0.79;100.00;102266.31;5072196;28;20213;-75
2021/03/02 01:36:12;;;;;;;2.40;2.17;;;;;;;0.79;100.00;102264.44;5073006;28;20582;-76
2021/03/02 01:38:38;;;;;;;2.17;2.03;;;;;;;0.75;100.00;102265.06;5072974;28;20504;-76
2021/03/02 01:41:03;;;;;;;3.63;3.07;;;;;;;0.84;100.00;102263.81;5073386;28;20258;-75
2021/03/02 01:43:29;;;;;;;1.93;1.83;;;;;;;0.86;100.00;102251.81;5075585;28;20467;-76
2021/03/02 01:45:54;;;;;;;1.17;1.13;;;;;;;0.82;100.00;102260.50;5075282;28;20182;-76
2021/03/02 01:48:19;;;;;;;1.67;1.30;;;;;;;0.78;100.00;102257.41;5073634;28;20175;-76
2021/03/02 01:50:45;;;;;;;1.10;0.73;;;;;;;0.79;100.00;102259.06;5073153;28;20243;-76
2021/03/02 01:53:10;;;;;;;1.73;1.50;;;;;;;0.77;100.00;102261.13;5072948;28;20191;-76
2021/03/02 01:55:35;;;;;;;2.40;1.73;;;;;;;0.50;100.00;102254.81;5072794;28;20218;-76
2021/03/02 01:58:01;;;;;;;2.50;2.33;;;;;;;0.57;100.00;102249.44;5072413;28;20520;-76
2021/03/02 02:00:35;;;;;;;1.60;1.27;;;;;;;0.51;100.00;102253.78;5072622;28;20178;-76
2021/03/02 02:03:10;;;;;;;3.10;2.43;;;;;;;0.50;100.00;102257.50;5072681;28;20170;-75
2021/03/02 02:05:43;;;;;;;3.07;2.80;;;;;;;0.66;100.00;102247.44;5072629;28;20899;-75
2021/03/02 02:08:13;;;;;;;2.03;1.70;;;;;;;0.53;100.00;102250.88;5072159;28;20888;-76
2021/03/02 02:10:50;;;;;;;2.50;2.30;;;;;;;0.58;100.00;102257.34;5072573;28;20428;-75
2021/03/02 02:13:44;;;;;;;3.70;3.40;;;;;;;0.54;100.00;102256.06;5072288;28;20426;-77
2021/03/02 02:16:12;;;;;;;4.73;3.10;;;;;;;0.60;100.00;102249.06;5070902;28;20451;-77
2021/03/02 02:18:39;;;;;;;3.00;2.77;;;;;;;0.59;100.00;102250.09;5072248;28;20417;-76
2021/03/02 02:21:14;;;;;;;4.77;4.37;;;;;;;0.64;100.00;102244.09;5072333;28;20413;-76
2021/03/02 02:23:48;;;;;;;2.33;2.20;;;;;;;0.50;100.00;102246.75;5072221;28;20424;-75
2021/03/02 02:26:35;;;;;;;2.97;2.53;;;;;;;0.57;100.00;102244.06;5070448;28;20425;-75
2021/03/02 02:29:01;;;;;;;2.73;2.53;;;;;;;0.63;100.00;102245.97;5071373;28;20412;-77
2021/03/02 02:31:28;;;;;;;3.27;3.07;;;;;;;0.76;100.00;102237.94;5072062;28;20459;-76
2021/03/02 02:33:55;;;;;;;2.37;2.23;;;;;;;0.58;100.00;102243.91;5071627;28;20521;-76
2021/03/02 02:36:21;;;;;;;2.40;2.23;;;;;;;0.73;100.00;102245.59;5070532;28;20428;-75
2021/03/02 02:38:57;;;;;;;2.20;2.03;;;;;;;0.69;100.00;102245.16;5071787;28;20162;-77
2021/03/02 02:41:24;;;;;;;1.57;1.30;;;;;;;0.76;100.00;102231.75;5071716;28;20178;-76
2021/03/02 02:43:51;;;;;;;3.20;2.90;;;;;;;0.74;100.00;102231.13;5072312;28;20409;-76
2021/03/02 02:46:18;;;;;;;5.80;2.13;;;;;;;0.71;100.00;102244.94;5071005;28;20435;-76
2021/03/02 02:48:44;;;;;;;5.27;1.93;;;;;;;0.77;100.00;102244.16;5071629;28;20417;-75
2021/03/02 02:51:10;;;;;;;2.30;2.20;;;;;;;0.86;100.00;102251.00;5071551;28;20892;-76
2021/03/02 02:53:37;;;;;;;2.27;2.17;;;;;;;0.80;100.00;102241.88;5070203;28;20465;-75
2021/03/02 02:56:05;;;;;;;1.93;1.80;;;;;;;0.64;100.00;102244.09;5071405;28;20174;-76
2021/03/02 02:58:37;;;;;;;3.03;2.73;;;;;;;0.76;100.00;102253.25;5071436;28;20417;-76
2021/03/02 03:01:04;;;;;;;1.77;1.67;;;;;;;0.76;100.00;102253.25;5071480;28;20409;-76
2021/03/02 03:03:32;;;;;;;3.87;2.90;;;;;;;0.84;100.00;102250.38;5071420;28;20892;-75
2021/03/02 03:06:01;;;;;;;1.53;1.43;;;;;;;0.63;100.00;102258.59;5069897;28;20616;-75
2021/03/02 03:08:31;;;;;;;4.80;1.83;;;;;;;0.49;100.00;102258.53;5070904;28;20784;-76
2021/03/02 03:10:58;;;;;;;2.30;0.90;;;;;;;0.27;100.00;102257.78;5070792;28;20424;-76
2021/03/02 03:13:26;;;;;;;2.27;2.07;;;;;;;0.14;100.00;102256.88;5070892;28;20440;-75
2021/03/02 03:15:56;;;;;;;1.50;1.40;;;;;;;-0.04;100.00;102250.16;5071332;28;20417;-76
2021/03/02 03:18:25;;;;;;;2.13;1.93;;;;;;;-0.13;100.00;102254.03;5070835;28;20425;-76
2021/03/02 03:20:51;;;;;;;2.00;1.77;;;;;;;-0.09;100.00;102257.97;5071223;28;20432;-75
2021/03/02 03:23:19;;;;;;;2.17;2.00;;;;;;;-0.12;100.00;102253.00;5071095;28;20520;-76
2021/03/02 03:25:44;;;;;;;2.07;1.93;;;;;;;-0.09;100.00;102257.97;5071033;28;20939;-75
2021/03/02 03:28:14;;;;;;;3.40;3.20;;;;;;;-0.16;100.00;102257.09;5070042;28;20421;-75
2021/03/02 03:30:40;;;;;;;1.57;1.47;;;;;;;-0.37;100.00;102260.66;5070925;28;20641;-76
2021/03/02 03:33:08;;;;;;;2.83;2.23;;;;;;;-0.43;100.00;102258.75;5071042;28;20417;-75
2021/03/02 03:35:35;;;;;;;1.60;1.50;;;;;;;-0.42;100.00;102267.66;5071333;28;20553;-76
2021/03/02 03:38:00;;;;;;;2.13;1.80;;;;;;;-0.48;100.00;102261.19;5070440;28;20420;-75
2021/03/02 03:40:25;;;;;;;3.00;2.77;;;;;;;-0.21;100.00;102267.59;5070706;28;20421;-75
2021/03/02 03:42:51;;;;;;;1.70;1.60;;;;;;;-0.04;100.00;102260.06;5070698;28;20193;-74
2021/03/02 03:45:17;;;;;;;2.07;1.53;;;;;;;0.07;100.00;102264.06;5070951;28;20232;-76
2021/03/02 03:47:42;;;;;;;2.30;1.90;;;;;;;0.06;100.00;102251.69;5070363;28;20556;-75
2021/03/02 03:50:08;;;;;;;4.23;2.27;;;;;;;0.20;100.00;102253.41;5070659;28;20174;-75
2021/03/02 03:52:38;;;;;;;1.70;1.60;;;;;;;0.18;100.00;102250.09;5070840;28;20177;-76
2021/03/02 03:55:06;;;;;;;1.77;1.67;;;;;;;0.31;100.00;102250.19;5071026;28;20950;-75
2021/03/02 03:57:32;;;;;;;1.93;1.73;;;;;;;0.44;100.00;102246.72;5069894;28;20423;-76
2021/03/02 03:59:58;;;;;;;2.83;1.53;;;;;;;0.49;100.00;102253.16;5070714;28;20900;-76
2021/03/02 04:02:24;;;;;;;1.43;1.33;;;;;;;0.39;100.00;102250.00;5070690;28;20425;-74
2021/03/02 04:04:50;;;;;;;1.80;1.70;;;;;;;0.34;100.00;102247.09;5070579;28;20419;-74
2021/03/02 04:07:16;;;;;;;1.90;1.80;;;;;;;0.38;100.00;102248.34;5070071;28;20175;-75
2021/03/02 04:09:44;;;;;;;0.73;0.73;;;;;;;0.50;100.00;102246.75;5070367;28;20896;-76
2021/03/02 04:12:10;;;;;;;1.83;1.73;;;;;;;0.46;100.00;102255.41;5070720;28;20495;-74
2021/03/02 04:14:35;;;;;;;2.63;2.43;;;;;;;0.42;100.00;102252.28;5070338;28;20468;-75
2021/03/02 04:17:02;;;;;;;1.97;1.53;;;;;;;0.28;100.00;102256.75;5068882;28;20433;-76
2021/03/02 04:19:27;;;;;;;5.87;1.70;;;;;;;0.29;100.00;102261.13;5070559;28;20171;-74
2021/03/02 04:21:52;;;;;;;1.90;1.80;;;;;;;0.37;100.00;102253.91;5070449;28;20432;-75
2021/03/02 04:24:18;;;;;;;2.43;1.50;;;;;;;0.24;100.00;102262.72;5070410;28;20610;-76
2021/03/02 04:26:43;;;;;;;1.73;1.63;;;;;;;0.33;100.00;102249.97;5070600;28;20197;-75
2021/03/02 04:29:08;;;;;;;1.40;0.90;;;;;;;0.40;100.00;102253.50;5069702;28;20578;-75
2021/03/02 04:31:34;;;;;;;1.40;1.40;;;;;;;0.46;100.00;102256.25;5070516;28;20175;-75
2021/03/02 04:33:59;;;;;;;3.57;2.90;;;;;;;0.48;100.00;102254.19;5070448;28;20255;-74
2021/03/02 04:36:24;;;;;;;1.53;1.43;;;;;;;0.52;100.00;102262.66;5070073;28;20224;-76
2021/03/02 04:38:50;;;;;;;1.90;1.73;;;;;;;0.49;100.00;102260.38;5070330;28;20184;-76
2021/03/02 04:41:15;;;;;;;2.97;2.77;;;;;;;0.50;100.00;102260.19;5070362;28;20181;-75
2021/03/02 04:43:40;;;;;;;1.73;1.60;;;;;;;0.21;100.00;102261.28;5070265;28;20542;-76
2021/03/02 04:46:06;;;;;;;2.13;1.87;;;;;;;-0.21;100.00;102262.22;5070191;28;20175;-76
2021/03/02 04:48:31;;;;;;;0.83;0.83;;;;;;;-0.16;100.00;102257.09;5070266;28;20618;-76
2021/03/02 04:50:56;;;;;;;1.23;1.23;;;;;;;0.05;100.00;102263.44;5070253;28;20258;-76
2021/03/02 04:53:22;;;;;;;2.13;2.03;;;;;;;0.20;100.00;102261.47;5070249;28;20324;-76
2021/03/02 04:55:47;;;;;;;1.87;1.43;;;;;;;0.23;100.00;102256.53;5070326;28;20178;-75
2021/03/02 04:58:12;;;;;;;1.40;1.30;;;;;;;0.24;100.00;102260.03;5070020;28;20174;-77
2021/03/02 05:00:38;;;;;;;2.23;2.07;;;;;;;0.27;100.00;102262.31;5070309;28;20185;-74
2021/03/02 05:03:03;;;;;;;1.60;1.30;;;;;;;-0.14;100.00;102268.50;5070307;28;20198;-76
2021/03/02 05:05:29;;;;;;;0.83;0.77;;;;;;;-0.05;100.00;102263.78;5070126;28;20681;-75
2021/03/02 05:07:54;;;;;;;2.03;0.90;;;;;;;-0.07;100.00;102271.22;5069744;28;20266;-75
2021/03/02 05:10:20;;;;;;;1.33;1.33;;;;;;;-0.46;100.00;102271.72;5072531;28;20196;-75
2021/03/02 05:12:45;;;;;;;0.80;0.80;;;;;;;-0.36;100.00;102269.53;5073689;28;20208;-75
2021/03/02 05:15:11;;;;;;;5.33;1.63;;;;;;;-0.46;100.00;102264.50;5073583;28;20229;-75
2021/03/02 05:17:36;;;;;;;1.50;1.40;;;;;;;-0.37;100.00;102262.50;5073244;28;20228;-75
2021/03/02 05:20:03;;;;;;;1.20;1.17;;;;;;;-0.25;100.00;102265.50;5073579;28;20197;-75
2021/03/02 05:22:28;;;;;;;1.40;1.30;;;;;;;-0.17;100.00;102259.97;5073547;28;20692;-74
2021/03/02 05:24:54;;;;;;;1.30;1.17;;;;;;;-0.26;100.00;102263.84;5073523;28;20417;-76
2021/03/02 05:27:19;;;;;;;1.43;0.80;;;;;;;-0.43;100.00;102263.31;5073027;28;20170;-74
2021/03/02 05:29:45;;;;;;;2.87;1.50;;;;;;;-0.51;100.00;102258.88;5072526;28;20175;-75
2021/03/02 05:32:10;;;;;;;2.83;2.63;;;;;;;-0.26;100.00;102253.94;5073156;28;20637;-75
2021/03/02 05:34:35;;;;;;;0.90;0.90;;;;;;;-0.19;100.00;102254.81;5073542;28;20206;-75
2021/03/02 05:37:01;;;;;;;1.40;1.30;;;;;;;-0.09;100.00;102251.78;5072855;28;20200;-75
2021/03/02 05:39:26;;;;;;;1.77;1.67;;;;;;;0.04;100.00;102256.41;5073091;28;20762;-75
2021/03/02 05:41:52;;;;;;;1.93;1.83;;;;;;;0.04;100.00;102251.03;5072053;28;20592;-75
2021/03/02 05:44:18;;;;;;;1.67;1.57;;;;;;;0.04;100.00;102248.34;5073194;28;20630;-75
2021/03/02 05:46:44;;;;;;;1.47;1.37;;;;;;;-0.03;100.00;102246.44;5073067;28;20452;-75
2021/03/02 05:49:11;;;;;;;2.33;2.23;;;;;;;-0.07;100.00;102247.03;5073049;28;20650;-75
2021/03/02 05:51:38;;;;;;;1.70;1.60;;;;;;;-0.09;100.00;102251.78;5072867;28;20622;-76
2021/03/02 05:54:04;;;;;;;1.40;1.33;;;;;;;0.03;100.00;102252.06;5072815;28;20464;-76
2021/03/02 05:56:30;;;;;;;1.93;1.83;;;;;;;0.17;100.00;102251.13;5072684;28;20449;-75
2021/03/02 05:58:56;;;;;;;0.97;0.97;;;;;;;0.18;100.00;102244.72;5072780;28;20494;-76
2021/03/02 06:01:21;;;;;;;1.80;1.63;;;;;;;0.11;100.00;102252.72;5072823;28;20167;-75
2021/03/02 06:03:46;;;;;;;1.93;1.83;;;;;;;0.21;100.00;102247.00;5073131;28;20182;-75
2021/03/02 06:06:12;;;;;;;1.23;1.23;;;;;;;0.12;100.00;102249.00;5072363;28;20577;-74
2021/03/02 06:08:37;;;;;;;0.70;0.70;;;;;;;0.07;100.00;102253.34;5072531;28;20175;-76
2021/03/02 06:11:24;;;;;;;0.77;0.77;;;;;;;0.00;100.00;102247.94;5071699;28;20184;-76
2021/03/02 06:13:50;;;;;;;0.70;0.67;;;;;;;-0.02;100.00;102245.41;5072789;28;20202;-75
2021/03/02 06:16:15;;;;;;;1.63;1.50;;;;;;;-0.04;100.00;102242.09;5072003;28;20559;-75
2021/03/02 06:18:53;;;;;;;1.53;1.43;;;;;;;-0.02;100.00;102250.78;5071355;28;20182;-75
2021/03/02 06:21:21;;;;;;;0.50;0.50;;;;;;;0.14;100.00;102254.19;5072106;28;20282;-76
2021/03/02 06:23:52;;;;;;;1.17;1.07;;;;;;;0.13;100.00;102261.41;5072674;28;20831;-75
2021/03/02 06:26:24;;;;;;;1.20;1.17;;;;;;;0.08;100.00;102250.44;5071946;28;20455;-75
2021/03/02 06:28:54;;;;;;;1.63;1.53;;;;;;;-0.33;100.00;102258.41;5071423;28;20440;-75
2021/03/02 06:31:45;;;;;;;2.17;1.50;;;;;;;-0.14;100.00;102260.44;5072269;28;20893;-76
2021/03/02 06:34:15;;;;;;;1.23;1.13;;;;;;;-0.41;100.00;102261.25;5071983;28;20581;-75
2021/03/02 06:36:55;;;;;;;1.23;1.10;;;;;;;-0.47;100.00;102264.69;5071708;28;20416;-75
2021/03/02 06:39:49;;;;;;;1.60;1.40;;;;;;;-0.46;100.00;102252.94;5071958;28;20814;-75
2021/03/02 06:42:20;;;;;;;1.43;1.03;;;;;;;-0.44;100.00;102253.56;5062566;28;20906;-74
2021/03/02 06:44:47;;;;;;;1.80;1.70;;;;;;;-0.30;100.00;102266.06;5071892;28;20482;-73
2021/03/02 06:47:31;;;;;;;1.60;1.20;;;;;;;-0.39;100.00;102262.72;5071556;28;20417;-83
2021/03/02 06:49:57;;;;;;;2.10;1.87;;;;;;;-0.23;100.00;102263.44;5072430;28;20467;-75
2021/03/02 06:52:22;;;;;;;1.20;1.10;;;;;;;-0.19;100.00;102264.72;5071798;28;20424;-74
2021/03/02 06:54:49;;;;;;;1.17;0.97;;;;;;;-0.09;100.00;102260.66;5071824;28;20468;-75
2021/03/02 06:57:25;;;;;;;1.43;0.93;;;;;;;-0.12;100.00;102262.94;5071574;28;20170;-74
2021/03/02 06:59:51;;;;;;;0.83;0.80;;;;;;;-0.31;100.00;102264.41;5071990;28;20417;-75
2021/03/02 07:02:30;;;;;;;1.87;1.77;;;;;;;-0.21;100.00;102258.72;5071851;28;20425;-74
2021/03/02 07:05:06;;;;;;;1.37;1.27;;;;;;;-0.19;100.00;102256.66;5071622;28;20417;-75
2021/03/02 07:07:32;;;;;;;1.47;1.37;;;;;;;-0.12;100.00;102262.94;5071205;28;20405;-76
2021/03/02 07:10:00;;;;;;;1.70;1.60;;;;;;;-0.11;100.00;102264.59;5071478;28;20506;-74
2021/03/02 07:12:30;;;;;;;0.70;0.67;;;;;;;-0.23;100.00;102260.78;5071450;28;20170;-76
2021/03/02 07:14:58;;;;;;;1.40;0.97;;;;;;;-0.21;100.00;102261.41;5071396;28;20988;-76
2021/03/02 07:17:23;;;;;;;1.03;1.00;;;;;;;0.02;100.00;102264.69;5071066;28;20417;-75
2021/03/02 07:19:49;;;;;;;0.70;0.70;;;;;;;0.19;100.00;102270.56;5071301;28;20412;-77
2021/03/02 07:22:14;;;;;;;1.33;1.23;;;;;;;0.16;100.00;102269.09;5071249;28;20585;-75
2021/03/02 07:24:40;;;;;;;2.93;1.13;;;;;;;0.29;100.00;102265.69;5071323;28;20697;-76
2021/03/02 07:27:08;;;;;;;1.80;1.70;;;;;;;0.30;100.00;102264.66;5070832;28;20177;-74
2021/03/02 07:29:33;;;;;;;1.77;1.50;;;;;;;0.41;100.00;102271.28;5070467;28;20416;-76
2021/03/02 07:32:02;;;;;;;1.00;0.60;;;;;;;0.41;100.00;102272.13;5070381;28;20509;-76
2021/03/02 07:34:28;;;;;;;1.23;0.93;;;;;;;0.18;100.00;102268.91;5069870;28;20209;-75
2021/03/02 07:36:54;;;;;;;1.33;1.33;;;;;;;0.30;100.00;102278.09;5070841;28;20409;-75
2021/03/02 07:39:29;;;;;;;1.70;1.57;;;;;;;0.11;100.00;102290.34;5071138;28;20765;-76
2021/03/02 07:41:56;;;;;;;1.83;1.10;;;;;;;-0.10;100.00;102280.50;5069543;28;20186;-75
2021/03/02 07:44:21;;;;;;;2.20;2.00;;;;;;;-0.21;100.00;102288.25;5070917;28;20428;-76
2021/03/02 07:46:55;;;;;;;1.37;1.20;;;;;;;-0.17;100.00;102284.16;5070704;28;20416;-76
2021/03/02 07:49:26;;;;;;;1.13;1.10;;;;;;;-0.23;100.00;102285.78;5070985;28;20174;-76
2021/03/02 07:52:00;;;;;;;0.87;0.87;;;;;;;-0.30;100.00;102282.19;5071536;28;20429;-76
2021/03/02 07:54:27;;;;;;;1.70;1.63;;;;;;;-0.41;100.00;102290.78;5072835;28;20452;-76
2021/03/02 07:57:14;;;;;;;4.80;2.03;;;;;;;-0.32;100.00;102287.75;5072768;28;20496;-76
2021/03/02 07:59:43;;;;;;;1.13;1.13;;;;;;;-0.33;100.00;102293.31;5071519;28;20417;-76
2021/03/02 08:02:16;;;;;;;1.10;1.00;;;;;;;-0.23;100.00;102299.19;5071017;28;20454;-75
2021/03/02 08:04:43;;;;;;;1.63;1.53;;;;;;;-0.29;100.00;102294.59;5071007;28;20409;-76
2021/03/02 08:07:19;;;;;;;1.30;1.20;;;;;;;0.09;100.00;102299.63;5070450;28;20413;-76
2021/03/02 08:09:45;;;;;;;1.50;1.40;;;;;;;0.27;100.00;102299.97;5070722;28;20404;-76
2021/03/02 08:12:26;;;;;;;2.00;1.70;;;;;;;0.45;100.00;102294.91;5070639;28;20413;-75
2021/03/02 08:14:52;;;;;;;1.83;1.73;;;;;;;0.65;100.00;102300.38;5070665;28;20467;-76
2021/03/02 08:17:19;;;;;;;3.07;2.77;;;;;;;0.54;100.00;102295.56;5070165;28;20445;-76
2021/03/02 08:19:47;;;;;;;1.07;1.07;;;;;;;0.47;100.00;102303.63;5070484;28;20915;-76
2021/03/02 08:22:19;;;;;;;2.10;2.00;;;;;;;0.49;100.00;102308.78;5070521;28;20466;-76
2021/03/02 08:24:51;;;;;;;2.77;2.57;;;;;;;0.15;100.00;102304.25;5070364;28;20421;-75
2021/03/02 08:27:51;;;;;;;1.70;1.53;;;;;;;0.28;100.00;102301.63;5069996;28;20896;-76
2021/03/02 08:30:35;;;;;;;1.90;1.77;;;;;;;0.69;100.00;102308.88;5068703;28;20585;-76
2021/03/02 08:33:06;;;;;;;1.07;1.07;;;;;;;0.89;100.00;102305.25;5070249;28;20750;-74
2021/03/02 08:35:38;;;;;;;1.80;1.60;;;;;;;0.46;100.00;102309.19;5068080;28;20500;-76
2021/03/02 08:38:06;;;;;;;1.20;1.13;;;;;;;0.26;100.00;102307.19;5058724;28;20512;-82
2021/03/02 08:40:31;;;;;;;1.27;1.27;;;;;;;0.42;100.00;102310.59;5069541;28;20531;-75
2021/03/02 08:43:02;;;;;;;4.13;3.83;;;;;;;0.64;100.00;102311.34;5070712;28;20555;-75
2021/03/02 08:45:28;;;;;;;1.70;1.60;;;;;;;0.29;100.00;102311.38;5074218;28;20174;-76
2021/03/02 08:48:16;;;;;;;3.43;1.67;;;;;;;0.71;100.00;102309.50;5073737;28;20530;-75
2021/03/02 08:50:41;;;;;;;2.83;2.63;;;;;;;0.89;100.00;102305.25;5073939;28;20419;-75
2021/03/02 08:53:52;;;;;;;2.87;1.73;;;;;;;0.91;100.00;102307.75;5073843;28;20504;-74
2021/03/02 08:56:25;;;;;;;2.23;2.07;;;;;;;0.96;100.00;102307.97;5030946;28;20192;-75
2021/03/02 08:58:53;;;;;;;2.33;2.03;;;;;;;0.98;100.00;102311.28;5067042;28;20804;-75
2021/03/02 09:01:21;;;;;;;1.57;1.47;;;;;;;1.14;100.00;102296.63;5074219;28;20444;-74
2021/03/02 09:03:48;;;;;;;2.03;1.60;;;;;;;0.83;100.00;102306.03;5073630;28;20449;-74
2021/03/02 09:06:26;;;;;;;16.40;2.40;;;;;;;0.75;100.00;102300.03;5073309;28;20409;-76
2021/03/02 09:09:09;;;;;;;2.93;2.73;;;;;;;1.00;100.00;102303.81;5073791;28;20942;-74
2021/03/02 09:11:40;;;;;;;1.73;1.63;;;;;;;1.06;100.00;102303.03;5073748;28;20528;-75
2021/03/02 09:14:21;;;;;;;2.23;2.03;;;;;;;0.87;100.00;102301.94;5073681;28;20467;-75
2021/03/02 09:16:47;;;;;;;1.43;1.33;;;;;;;0.97;100.00;102292.63;5073172;28;20458;-75
2021/03/02 09:19:16;;;;;;;3.53;3.27;;;;;;;0.80;100.00;102290.31;5072118;28;20431;-75
2021/03/02 09:22:07;;;;;;;1.20;1.20;;;;;;;0.62;100.00;102297.28;5073925;28;20435;-75
2021/03/02 09:24:38;;;;;;;1.60;1.50;;;;;;;0.74;100.00;102287.59;5073602;28;20416;-74
2021/03/02 09:27:06;;;;;;;2.70;2.53;;;;;;;0.61;100.00;102298.31;5072962;28;20439;-75
2021/03/02 09:29:43;;;;;;;0.60;0.60;;;;;;;0.88;100.00;102297.38;5073561;28;20421;-74
2021/03/02 09:32:10;;;;;;;1.83;1.63;;;;;;;1.00;100.00;102298.44;5072057;28;20429;-76
2021/03/02 09:34:36;;;;;;;1.23;1.23;;;;;;;0.97;100.00;102296.16;5073361;28;20483;-75
2021/03/02 09:37:13;;;;;;;2.90;2.37;;;;;;;0.94;100.00;102293.88;5072893;28;20532;-74
2021/03/02 09:39:41;;;;;;;1.30;1.30;;;;;;;1.25;100.00;102290.66;5073067;28;20425;-74
2021/03/02 09:42:20;;;;;;;4.27;2.20;;;;;;;1.38;100.00;102295.22;5072737;28;20421;-76
2021/03/02 09:44:52;;;;;;;1.70;1.47;;;;;;;1.40;100.00;102301.25;5072963;28;20416;-74
2021/03/02 09:47:24;;;;;;;3.93;2.30;;;;;;;1.35;100.00;102303.72;5072162;28;20400;-75
2021/03/02 09:50:14;;;;;;;1.77;1.67;;;;;;;1.22;100.00;102296.44;5072704;28;20500;-75
2021/03/02 09:52:43;;;;;;;2.40;2.03;;;;;;;1.33;100.00;102303.09;5067216;28;20763;-75
2021/03/02 09:55:32;;;;;;;2.40;1.80;;;;;;;1.30;100.00;102298.09;5071808;28;20522;-76
2021/03/02 09:58:12;;;;;;;2.10;1.57;;;;;;;1.36;100.00;102300.00;5072108;28;20450;-74
2021/03/02 10:00:58;;;;;;;3.17;2.63;;;;;;;1.39;100.00;102299.59;5072471;28;20397;-74
2021/03/02 10:03:35;;;;;;;2.13;2.03;;;;;;;1.55;100.00;102295.66;5072475;28;20455;-75
2021/03/02 10:06:01;;;;;;;5.50;3.00;;;;;;;1.59;100.00;102297.75;5072108;28;20433;-75
2021/03/02 10:08:38;;;;;;;4.23;3.93;;;;;;;1.71;100.00;102295.25;5069923;28;20787;-75
2021/03/02 10:11:12;;;;;;;2.30;2.07;;;;;;;1.93;100.00;102295.91;5071972;28;20931;-75
2021/03/02 10:13:39;;;;;;;2.00;1.80;;;;;;;1.82;100.00;102304.59;5072147;28;20423;-75
2021/03/02 10:16:18;;;;;;;2.73;2.43;;;;;;;1.82;100.00;102301.91;5071798;28;20789;-76
2021/03/02 10:18:54;;;;;;;2.83;2.63;;;;;;;2.03;100.00;102296.31;5071913;28;20425;-74
2021/03/02 10:21:21;;;;;;;4.60;3.30;;;;;;;2.17;100.00;102294.41;5072214;28;20408;-75
2021/03/02 10:23:49;;;;;;;2.97;2.73;;;;;;;2.08;100.00;102299.19;5071763;28;20425;-75
2021/03/02 10:26:24;;;;;;;3.07;2.87;;;;;;;2.24;100.00;102296.06;5068744;28;20785;-74
2021/03/02 10:28:49;;;;;;;2.20;2.07;;;;;;;2.45;100.00;102286.88;5070594;28;20425;-75
2021/03/02 10:31:15;;;;;;;3.17;2.87;;;;;;;2.47;100.00;102282.13;5071940;28;20186;-75
2021/03/02 10:33:40;;;;;;;2.27;2.10;;;;;;;2.57;100.00;102278.94;5071868;28;20599;-75
2021/03/02 10:36:34;;;;;;;2.93;2.70;;;;;;;2.68;99.68;102281.81;5071714;28;20253;-75
2021/03/02 10:39:05;;;;;;;3.23;2.53;;;;;;;2.91;99.52;102278.63;5071903;28;20183;-74
2021/03/02 10:41:31;;;;;;;3.27;3.00;;;;;;;3.19;99.02;102272.84;5071637;28;20463;-74
2021/03/02 10:43:56;;;;;;;3.77;3.40;;;;;;;3.22;98.42;102272.41;5071728;28;20425;-75
2021/03/02 10:46:25;;;;;;;3.87;3.50;;;;;;;3.36;97.43;102278.56;5071222;28;20182;-73
2021/03/02 10:48:50;;;;;;;2.70;2.50;;;;;;;3.65;96.96;102274.41;5071645;28;20257;-75
2021/03/02 10:51:16;;;;;;;3.50;2.87;;;;;;;3.73;96.64;102273.28;5071449;28;20196;-74
2021/03/02 10:53:43;;;;;;;4.50;2.77;;;;;;;3.96;96.68;102264.56;5071311;28;20563;-75
2021/03/02 10:56:08;;;;;;;4.20;3.90;;;;;;;3.96;95.33;102262.69;5070886;28;20201;-74
2021/03/02 10:58:34;;;;;;;2.80;2.40;;;;;;;3.92;95.13;102255.25;5071271;28;20177;-73
2021/03/02 11:01:00;;;;;;;3.03;2.80;;;;;;;4.08;95.17;102263.63;5071246;28;20178;-75
2021/03/02 11:03:25;;;;;;;2.73;2.53;;;;;;;4.14;94.65;102268.13;5071415;28;20170;-74
2021/03/02 11:05:51;;;;;;;2.47;2.27;;;;;;;4.40;95.12;102263.50;5071083;28;20186;-75
2021/03/02 11:08:20;;;;;;;1.97;1.73;;;;;;;4.50;93.46;102268.38;5070831;28;20670;-75
2021/03/02 11:10:46;;;;;;;1.67;1.57;;;;;;;4.37;93.33;102272.06;5071097;28;20194;-73
2021/03/02 11:13:12;;;;;;;2.47;2.27;;;;;;;4.66;93.11;102265.88;5071085;28;20178;-73
2021/03/02 11:15:37;;;;;;;2.20;2.10;;;;;;;4.54;92.60;102259.56;5070996;28;20255;-75
2021/03/02 11:18:03;;;;;;;1.50;1.40;;;;;;;4.77;92.48;102262.44;5070729;28;20175;-75
2021/03/02 11:20:28;;;;;;;2.27;2.07;;;;;;;4.96;91.54;102257.78;5070279;28;20178;-74
2021/03/02 11:22:53;;;;;;;3.17;2.87;;;;;;;5.01;91.48;102249.78;5070867;28;20170;-75
2021/03/02 11:25:19;;;;;;;2.23;2.03;;;;;;;4.97;90.69;102255.91;5071298;28;20191;-74
2021/03/02 11:27:46;;;;;;;4.93;2.03;;;;;;;5.16;90.24;102243.97;5070670;28;20261;-76
2021/03/02 11:30:13;;;;;;;2.17;2.07;;;;;;;5.36;89.66;102244.50;5070615;28;20577;-74
2021/03/02 11:32:39;;;;;;;1.53;1.43;;;;;;;5.42;88.89;102239.19;5071057;28;20215;-74